MMCZMZBZ

Guest
Details From MMCZ - Cozumel Intl
To MZBZ - Philip S W Goldson Intl
Flight Number -
Tags generated
Created
Modified
Stats Distance 196 nm / 362 km
Max Altitude 10,300 ft / 3,139 m
Waypoints 5
Social Downloads 0
Likes 0
Share VATSIM

Download

Looking for another format? Having issues loading an existing format? Contact us
Advertisement - Login to hide

Notes

Basic altitude profile: - Ascent Rate: 2500ft/min - Ascent Speed: 100kts - Cruise Altitude: 35000ft - Cruise Speed: 120kts - Descent Rate: 1500ft/min - Descent Speed: 120kts Options: - Use NATs: yes - Use PACOTS: yes - Use low airways: yes - Use high airways: yes

Route

MMCZ CZM B764 TAMDA MZBZ

ID Type Via Altitude Latitude Longitude Leg Dist Tot Dist Heading (true) Name
O MMCZ APT - 0 ft / 0 m 20.52284˚ -86.92814˚ - 0 nm - Cozumel Intl
CZM VOR - 0 ft / 0 m 20.52206˚ -86.92928˚ 0 nm 0 nm 233° / 233° COZUMEL VOR-DME
SATOS FIX B764 (AWY-LO) 10,300 ft / 3,139 m 18.34855˚ -87.94495˚ 142 nm 142 nm 204° / 204° -
TAMDA FIX B764 (AWY-LO) 5,300 ft / 1,615 m 17.92000˚ -88.14000˚ 28 nm 170 nm 203° / 203° -
O MZBZ APT - 0 ft / 0 m 17.53914˚ -88.30820˚ 24 nm 195 nm 203° / 203° Philip S W Goldson Intl

Altitude Profile

Advertisement - Login to hide

Weather


0- 5 10 15 20 25 30 35+ Temperature / ° C

Clouds and Precipitation
Forecast for 2017-12-12 00:00 UTC. Updated 21 minutes ago

Ground ~20,000 ft ~40,000 ft Winds

MMCZ

Details ICAO MMCZ (CZM)
Name Cozumel Intl
Region Mexico
Timezone America/Cancun (UTC-5.0)
Stats Elevation 15 ft / 5 m (AMSL)
Location 20.522845° -86.928142°
Runways 2
Magnetic Variation 1.776° W

METAR

MMCZ 111840Z 35016KT 8SM SCT070 BKN250 24/17 A3016 RMK 8/038 CU

Decode

TAF

TAF MMCZ 111714Z 1118/1224 36015KT P6SM BKN020 BKN080 TEMPO 1118/1122 5SM -RA FM112300 03010KT P6SM SCT020 BKN070 FM121600 07010KT P6SM SCT025

Decode

Departure Runways

ID Width Length Bearing (true) Bearing (mag) Surface Threshold Offset Overrun Length
05 148 ft / 45 m 10,172 ft / 3,101 m 55.07° 56.85° Asphalt 2,530 ft / 771 m 0 ft / 0 m
11 148 ft / 45 m 8,866 ft / 2,702 m 115.78° 117.56° Asphalt 656 ft / 200 m 0 ft / 0 m
23 148 ft / 45 m 10,172 ft / 3,101 m 235.08° 236.86° Asphalt 0 ft / 0 m 190 ft / 58 m
29 148 ft / 45 m 8,866 ft / 2,702 m 295.79° 297.57° Asphalt 0 ft / 0 m 210 ft / 64 m

MZBZ

Details ICAO MZBZ (BZE)
Name Philip S W Goldson Intl
Region Belize
Timezone America/Belize (UTC-6.0)
Stats Elevation 15 ft / 5 m (AMSL)
Location 17.539144° -88.308201°
Runways 1
Magnetic Variation 0.556° W

METAR

MZBZ 111900Z 31008KT 9999 FEW023 24/15 A3017 Q1021 NOSIG

Decode

TAF

Not found

Destination Runways

ID Width Length Bearing (true) Bearing (mag) Surface Threshold Offset Overrun Length
07 150 ft / 46 m 7,097 ft / 2,163 m 76.65° 77.21° Asphalt 0 ft / 0 m 200 ft / 61 m
25 150 ft / 46 m 7,097 ft / 2,163 m 256.66° 257.22° Asphalt 0 ft / 0 m 200 ft / 61 m